sensor_id;sensor_type;location;lat;lon;timestamp;temperature;humidity
72106;SHT30;59975;47.646;18.318;2023-04-03T00:01:07;4.88;72.82
72106;SHT30;59975;47.646;18.318;2023-04-03T00:03:33;4.80;72.99
72106;SHT30;59975;47.646;18.318;2023-04-03T00:05:59;4.76;73.11
72106;SHT30;59975;47.646;18.318;2023-04-03T00:08:25;4.72;73.07
72106;SHT30;59975;47.646;18.318;2023-04-03T00:10:50;4.71;73.25
72106;SHT30;59975;47.646;18.318;2023-04-03T00:13:16;4.68;73.22
72106;SHT30;59975;47.646;18.318;2023-04-03T00:15:42;4.61;73.70
72106;SHT30;59975;47.646;18.318;2023-04-03T00:18:08;4.61;73.88
72106;SHT30;59975;47.646;18.318;2023-04-03T00:20:34;4.54;73.89
72106;SHT30;59975;47.646;18.318;2023-04-03T00:23:00;4.56;73.70
72106;SHT30;59975;47.646;18.318;2023-04-03T00:25:26;4.55;73.88
72106;SHT30;59975;47.646;18.318;2023-04-03T00:27:52;4.52;74.21
72106;SHT30;59975;47.646;18.318;2023-04-03T00:30:19;4.49;74.60
72106;SHT30;59975;47.646;18.318;2023-04-03T00:32:50;4.44;74.77
72106;SHT30;59975;47.646;18.318;2023-04-03T00:35:16;4.42;75.04
72106;SHT30;59975;47.646;18.318;2023-04-03T00:37:43;4.35;75.05
72106;SHT30;59975;47.646;18.318;2023-04-03T00:40:09;4.37;75.32
72106;SHT30;59975;47.646;18.318;2023-04-03T00:42:37;4.33;75.34
72106;SHT30;59975;47.646;18.318;2023-04-03T00:47:29;4.27;75.65
72106;SHT30;59975;47.646;18.318;2023-04-03T00:49:56;4.28;75.50
72106;SHT30;59975;47.646;18.318;2023-04-03T00:52:25;4.25;75.82
72106;SHT30;59975;47.646;18.318;2023-04-03T00:54:56;4.22;75.88
72106;SHT30;59975;47.646;18.318;2023-04-03T00:57:22;4.24;75.58
72106;SHT30;59975;47.646;18.318;2023-04-03T00:59:53;4.27;75.46
72106;SHT30;59975;47.646;18.318;2023-04-03T01:02:19;4.22;75.84
72106;SHT30;59975;47.646;18.318;2023-04-03T01:04:45;4.20;75.62
72106;SHT30;59975;47.646;18.318;2023-04-03T01:07:24;4.24;75.57
72106;SHT30;59975;47.646;18.318;2023-04-03T01:09:54;4.20;75.76
72106;SHT30;59975;47.646;18.318;2023-04-03T01:12:22;4.18;75.97
72106;SHT30;59975;47.646;18.318;2023-04-03T01:14:50;4.13;76.00
72106;SHT30;59975;47.646;18.318;2023-04-03T01:17:37;4.07;76.40
72106;SHT30;59975;47.646;18.318;2023-04-03T01:25:31;4.05;76.58
72106;SHT30;59975;47.646;18.318;2023-04-03T01:27:57;4.07;76.82
72106;SHT30;59975;47.646;18.318;2023-04-03T01:30:39;4.08;76.74
72106;SHT30;59975;47.646;18.318;2023-04-03T01:33:06;4.08;77.02
72106;SHT30;59975;47.646;18.318;2023-04-03T01:35:32;4.03;77.28
72106;SHT30;59975;47.646;18.318;2023-04-03T01:37:57;3.98;77.65
72106;SHT30;59975;47.646;18.318;2023-04-03T01:40:23;4.01;77.67
72106;SHT30;59975;47.646;18.318;2023-04-03T01:42:48;3.97;77.85
72106;SHT30;59975;47.646;18.318;2023-04-03T01:45:14;4.01;77.81
72106;SHT30;59975;47.646;18.318;2023-04-03T01:47:39;4.01;77.72
72106;SHT30;59975;47.646;18.318;2023-04-03T01:50:05;4.03;77.78
72106;SHT30;59975;47.646;18.318;2023-04-03T01:52:31;4.00;77.95
72106;SHT30;59975;47.646;18.318;2023-04-03T01:54:56;4.01;77.88
72106;SHT30;59975;47.646;18.318;2023-04-03T01:57:22;4.04;77.83
72106;SHT30;59975;47.646;18.318;2023-04-03T01:59:47;3.94;78.32
72106;SHT30;59975;47.646;18.318;2023-04-03T02:02:13;3.91;78.56
72106;SHT30;59975;47.646;18.318;2023-04-03T02:04:40;3.86;78.70
72106;SHT30;59975;47.646;18.318;2023-04-03T02:07:05;3.84;78.59
72106;SHT30;59975;47.646;18.318;2023-04-03T02:09:31;3.80;78.82
72106;SHT30;59975;47.646;18.318;2023-04-03T02:11:56;3.76;79.00
72106;SHT30;59975;47.646;18.318;2023-04-03T02:14:22;3.72;79.10
72106;SHT30;59975;47.646;18.318;2023-04-03T02:16:49;3.70;79.08
72106;SHT30;59975;47.646;18.318;2023-04-03T02:19:14;3.62;79.57
72106;SHT30;59975;47.646;18.318;2023-04-03T02:21:40;3.56;79.49
72106;SHT30;59975;47.646;18.318;2023-04-03T02:24:05;3.53;79.73
72106;SHT30;59975;47.646;18.318;2023-04-03T02:26:31;3.52;79.75
72106;SHT30;59975;47.646;18.318;2023-04-03T02:28:56;3.48;79.93
72106;SHT30;59975;47.646;18.318;2023-04-03T02:31:22;3.40;80.08
72106;SHT30;59975;47.646;18.318;2023-04-03T02:33:47;3.43;80.02
72106;SHT30;59975;47.646;18.318;2023-04-03T02:36:13;3.44;79.82
72106;SHT30;59975;47.646;18.318;2023-04-03T02:38:38;3.44;79.92
72106;SHT30;59975;47.646;18.318;2023-04-03T02:41:07;3.48;79.85
72106;SHT30;59975;47.646;18.318;2023-04-03T02:43:33;3.42;79.85
72106;SHT30;59975;47.646;18.318;2023-04-03T02:45:58;3.43;79.94
72106;SHT30;59975;47.646;18.318;2023-04-03T02:48:25;3.35;80.14
72106;SHT30;59975;47.646;18.318;2023-04-03T02:50:51;3.35;80.34
72106;SHT30;59975;47.646;18.318;2023-04-03T02:53:16;3.35;80.41
72106;SHT30;59975;47.646;18.318;2023-04-03T02:55:42;3.36;80.40
72106;SHT30;59975;47.646;18.318;2023-04-03T02:58:07;3.43;80.06
72106;SHT30;59975;47.646;18.318;2023-04-03T03:00:34;3.43;80.19
72106;SHT30;59975;47.646;18.318;2023-04-03T03:02:59;3.49;79.55
72106;SHT30;59975;47.646;18.318;2023-04-03T03:05:26;3.49;79.91
72106;SHT30;59975;47.646;18.318;2023-04-03T03:07:52;3.50;79.62
72106;SHT30;59975;47.646;18.318;2023-04-03T03:10:18;3.43;79.90
72106;SHT30;59975;47.646;18.318;2023-04-03T03:12:44;3.42;79.87
72106;SHT30;59975;47.646;18.318;2023-04-03T03:15:10;3.33;80.15
72106;SHT30;59975;47.646;18.318;2023-04-03T03:17:35;3.30;80.28
72106;SHT30;59975;47.646;18.318;2023-04-03T03:20:02;3.25;80.33
72106;SHT30;59975;47.646;18.318;2023-04-03T03:22:28;3.26;80.44
72106;SHT30;59975;47.646;18.318;2023-04-03T03:24:53;3.26;80.29
72106;SHT30;59975;47.646;18.318;2023-04-03T03:27:20;3.25;80.41
72106;SHT30;59975;47.646;18.318;2023-04-03T03:29:46;3.18;80.70
72106;SHT30;59975;47.646;18.318;2023-04-03T03:32:11;3.16;80.84
72106;SHT30;59975;47.646;18.318;2023-04-03T03:34:37;3.16;80.79
72106;SHT30;59975;47.646;18.318;2023-04-03T03:37:02;3.13;80.85
72106;SHT30;59975;47.646;18.318;2023-04-03T03:39:28;3.11;81.00
72106;SHT30;59975;47.646;18.318;2023-04-03T03:41:53;3.02;81.28
72106;SHT30;59975;47.646;18.318;2023-04-03T03:44:19;2.95;81.53
72106;SHT30;59975;47.646;18.318;2023-04-03T03:46:45;2.99;81.53
72106;SHT30;59975;47.646;18.318;2023-04-03T03:49:11;2.91;81.84
72106;SHT30;59975;47.646;18.318;2023-04-03T03:51:37;2.89;81.96
72106;SHT30;59975;47.646;18.318;2023-04-03T03:54:03;2.94;81.77
72106;SHT30;59975;47.646;18.318;2023-04-03T03:56:29;2.94;81.69
72106;SHT30;59975;47.646;18.318;2023-04-03T03:58:54;2.98;81.55
72106;SHT30;59975;47.646;18.318;2023-04-03T04:01:21;3.01;81.44
72106;SHT30;59975;47.646;18.318;2023-04-03T04:03:47;2.98;81.48
72106;SHT30;59975;47.646;18.318;2023-04-03T04:06:13;3.01;81.47
72106;SHT30;59975;47.646;18.318;2023-04-03T04:08:39;3.01;81.58
72106;SHT30;59975;47.646;18.318;2023-04-03T04:11:19;2.89;81.89
72106;SHT30;59975;47.646;18.318;2023-04-03T04:13:46;2.91;81.91
72106;SHT30;59975;47.646;18.318;2023-04-03T04:16:12;2.87;82.06
72106;SHT30;59975;47.646;18.318;2023-04-03T04:18:37;2.85;82.13
72106;SHT30;59975;47.646;18.318;2023-04-03T04:21:03;2.87;81.98
72106;SHT30;59975;47.646;18.318;2023-04-03T04:23:28;2.83;82.08
72106;SHT30;59975;47.646;18.318;2023-04-03T04:25:54;2.87;82.05
72106;SHT30;59975;47.646;18.318;2023-04-03T04:28:19;2.87;81.88
72106;SHT30;59975;47.646;18.318;2023-04-03T04:30:45;2.84;82.15
72106;SHT30;59975;47.646;18.318;2023-04-03T04:33:11;2.80;82.46
72106;SHT30;59975;47.646;18.318;2023-04-03T04:35:36;2.75;82.46
72106;SHT30;59975;47.646;18.318;2023-04-03T04:38:02;2.83;82.16
72106;SHT30;59975;47.646;18.318;2023-04-03T04:40:28;2.83;81.91
72106;SHT30;59975;47.646;18.318;2023-04-03T04:42:53;2.81;81.75
72106;SHT30;59975;47.646;18.318;2023-04-03T04:45:19;2.83;81.49
72106;SHT30;59975;47.646;18.318;2023-04-03T04:47:45;2.85;81.25
72106;SHT30;59975;47.646;18.318;2023-04-03T04:50:11;2.89;81.02
72106;SHT30;59975;47.646;18.318;2023-04-03T04:52:37;2.91;80.72
72106;SHT30;59975;47.646;18.318;2023-04-03T04:55:03;2.91;80.69
72106;SHT30;59975;47.646;18.318;2023-04-03T04:57:28;2.99;80.34
72106;SHT30;59975;47.646;18.318;2023-04-03T04:59:54;3.04;80.21
72106;SHT30;59975;47.646;18.318;2023-04-03T05:02:19;3.08;79.77
72106;SHT30;59975;47.646;18.318;2023-04-03T05:04:45;3.18;79.35
72106;SHT30;59975;47.646;18.318;2023-04-03T05:07:10;3.23;79.02
72106;SHT30;59975;47.646;18.318;2023-04-03T05:09:36;3.29;78.94
72106;SHT30;59975;47.646;18.318;2023-04-03T05:12:02;3.35;78.72
72106;SHT30;59975;47.646;18.318;2023-04-03T05:14:28;3.38;78.65
72106;SHT30;59975;47.646;18.318;2023-04-03T05:16:53;3.44;78.37
72106;SHT30;59975;47.646;18.318;2023-04-03T05:19:20;3.50;78.22
72106;SHT30;59975;47.646;18.318;2023-04-03T05:21:46;3.58;78.01
72106;SHT30;59975;47.646;18.318;2023-04-03T05:24:13;3.69;77.88
72106;SHT30;59975;47.646;18.318;2023-04-03T05:26:39;3.77;76.99
72106;SHT30;59975;47.646;18.318;2023-04-03T05:29:04;3.83;77.37
72106;SHT30;59975;47.646;18.318;2023-04-03T05:31:30;3.91;77.00
72106;SHT30;59975;47.646;18.318;2023-04-03T05:33:56;3.93;76.57
72106;SHT30;59975;47.646;18.318;2023-04-03T05:36:22;4.01;76.33
72106;SHT30;59975;47.646;18.318;2023-04-03T05:38:48;4.07;76.10
72106;SHT30;59975;47.646;18.318;2023-04-03T05:41:14;4.10;76.00
72106;SHT30;59975;47.646;18.318;2023-04-03T05:44:05;4.14;75.86
72106;SHT30;59975;47.646;18.318;2023-04-03T05:46:44;4.21;75.38
72106;SHT30;59975;47.646;18.318;2023-04-03T05:49:25;4.22;75.04
72106;SHT30;59975;47.646;18.318;2023-04-03T05:52:25;4.30;74.87
72106;SHT30;59975;47.646;18.318;2023-04-03T05:55:17;4.44;74.87
72106;SHT30;59975;47.646;18.318;2023-04-03T05:57:43;4.54;74.36
72106;SHT30;59975;47.646;18.318;2023-04-03T06:00:38;4.64;74.11
72106;SHT30;59975;47.646;18.318;2023-04-03T06:03:27;4.65;73.45
72106;SHT30;59975;47.646;18.318;2023-04-03T06:05:56;4.66;73.15
72106;SHT30;59975;47.646;18.318;2023-04-03T06:08:30;4.75;73.04
72106;SHT30;59975;47.646;18.318;2023-04-03T06:11:03;4.76;73.17
72106;SHT30;59975;47.646;18.318;2023-04-03T06:13:29;4.82;72.24
72106;SHT30;59975;47.646;18.318;2023-04-03T06:16:18;4.89;72.32
72106;SHT30;59975;47.646;18.318;2023-04-03T06:18:51;5.01;72.23
72106;SHT30;59975;47.646;18.318;2023-04-03T06:21:19;5.10;71.53
72106;SHT30;59975;47.646;18.318;2023-04-03T06:23:45;5.08;70.86
72106;SHT30;59975;47.646;18.318;2023-04-03T06:26:11;5.15;71.24
72106;SHT30;59975;47.646;18.318;2023-04-03T06:28:51;5.26;71.09
72106;SHT30;59975;47.646;18.318;2023-04-03T06:31:42;5.30;70.60
72106;SHT30;59975;47.646;18.318;2023-04-03T06:34:21;5.43;70.37
72106;SHT30;59975;47.646;18.318;2023-04-03T06:37:00;5.43;69.83
72106;SHT30;59975;47.646;18.318;2023-04-03T06:40:20;5.47;70.12
72106;SHT30;59975;47.646;18.318;2023-04-03T06:43:19;5.54;69.53
72106;SHT30;59975;47.646;18.318;2023-04-03T06:50:03;5.64;68.94
72106;SHT30;59975;47.646;18.318;2023-04-03T06:56:35;5.77;69.13
72106;SHT30;59975;47.646;18.318;2023-04-03T06:59:24;5.85;69.11
72106;SHT30;59975;47.646;18.318;2023-04-03T07:01:49;5.95;68.83
72106;SHT30;59975;47.646;18.318;2023-04-03T07:07:06;6.06;68.06
72106;SHT30;59975;47.646;18.318;2023-04-03T07:09:35;6.01;67.77
72106;SHT30;59975;47.646;18.318;2023-04-03T07:12:01;6.06;68.06
72106;SHT30;59975;47.646;18.318;2023-04-03T07:14:32;6.09;67.87
72106;SHT30;59975;47.646;18.318;2023-04-03T07:17:04;6.16;67.97
72106;SHT30;59975;47.646;18.318;2023-04-03T07:19:32;6.26;67.71
72106;SHT30;59975;47.646;18.318;2023-04-03T07:32:49;6.70;64.04
72106;SHT30;59975;47.646;18.318;2023-04-03T07:35:25;6.62;62.58
72106;SHT30;59975;47.646;18.318;2023-04-03T07:38:02;6.72;62.14
72106;SHT30;59975;47.646;18.318;2023-04-03T07:40:37;6.72;61.05
72106;SHT30;59975;47.646;18.318;2023-04-03T07:43:03;6.75;60.78
72106;SHT30;59975;47.646;18.318;2023-04-03T07:45:31;6.76;60.88
72106;SHT30;59975;47.646;18.318;2023-04-03T07:48:01;6.88;60.01
72106;SHT30;59975;47.646;18.318;2023-04-03T07:54:19;7.07;59.90
72106;SHT30;59975;47.646;18.318;2023-04-03T07:57:05;7.03;59.16
72106;SHT30;59975;47.646;18.318;2023-04-03T08:00:00;6.90;59.08
72106;SHT30;59975;47.646;18.318;2023-04-03T08:02:40;7.10;58.99
72106;SHT30;59975;47.646;18.318;2023-04-03T08:09:36;7.45;57.93
72106;SHT30;59975;47.646;18.318;2023-04-03T08:12:58;7.44;57.02
72106;SHT30;59975;47.646;18.318;2023-04-03T08:29:57;7.54;55.51
72106;SHT30;59975;47.646;18.318;2023-04-03T08:32:32;7.82;55.64
72106;SHT30;59975;47.646;18.318;2023-04-03T08:35:20;7.78;53.78
72106;SHT30;59975;47.646;18.318;2023-04-03T08:37:53;7.76;53.65
72106;SHT30;59975;47.646;18.318;2023-04-03T08:47:56;7.82;53.49
72106;SHT30;59975;47.646;18.318;2023-04-03T08:50:30;7.96;52.84
72106;SHT30;59975;47.646;18.318;2023-04-03T08:56:26;8.22;51.62
72106;SHT30;59975;47.646;18.318;2023-04-03T08:59:03;8.17;51.48
72106;SHT30;59975;47.646;18.318;2023-04-03T09:12:27;8.57;50.73
72106;SHT30;59975;47.646;18.318;2023-04-03T09:46:55;8.44;51.30
72106;SHT30;59975;47.646;18.318;2023-04-03T09:49:24;8.71;50.93
72106;SHT30;59975;47.646;18.318;2023-04-03T09:51:53;8.68;50.64
72106;SHT30;59975;47.646;18.318;2023-04-03T09:54:37;8.58;51.80
72106;SHT30;59975;47.646;18.318;2023-04-03T09:57:18;8.54;50.32
72106;SHT30;59975;47.646;18.318;2023-04-03T10:00:00;8.56;51.02
72106;SHT30;59975;47.646;18.318;2023-04-03T10:02:35;8.51;49.45
72106;SHT30;59975;47.646;18.318;2023-04-03T10:05:02;8.69;51.94
72106;SHT30;59975;47.646;18.318;2023-04-03T10:07:36;8.74;51.24
72106;SHT30;59975;47.646;18.318;2023-04-03T10:10:19;8.88;50.73
72106;SHT30;59975;47.646;18.318;2023-04-03T10:12:47;8.84;48.84
72106;SHT30;59975;47.646;18.318;2023-04-03T10:15:15;8.72;48.69
72106;SHT30;59975;47.646;18.318;2023-04-03T10:18:26;8.65;49.81
72106;SHT30;59975;47.646;18.318;2023-04-03T10:20:53;8.92;49.95
72106;SHT30;59975;47.646;18.318;2023-04-03T10:23:30;8.98;50.37
72106;SHT30;59975;47.646;18.318;2023-04-03T10:26:17;9.15;47.74
72106;SHT30;59975;47.646;18.318;2023-04-03T10:29:06;9.42;48.97
72106;SHT30;59975;47.646;18.318;2023-04-03T10:47:43;9.32;49.10
72106;SHT30;59975;47.646;18.318;2023-04-03T10:50:26;9.31;47.95
72106;SHT30;59975;47.646;18.318;2023-04-03T10:57:55;9.63;46.78
72106;SHT30;59975;47.646;18.318;2023-04-03T11:00:42;9.77;46.50
72106;SHT30;59975;47.646;18.318;2023-04-03T11:03:30;10.00;45.06
72106;SHT30;59975;47.646;18.318;2023-04-03T11:06:01;9.91;46.04
72106;SHT30;59975;47.646;18.318;2023-04-03T11:11:06;9.67;45.55
72106;SHT30;59975;47.646;18.318;2023-04-03T11:13:49;9.89;44.70
72106;SHT30;59975;47.646;18.318;2023-04-03T11:16:20;9.73;45.12
72106;SHT30;59975;47.646;18.318;2023-04-03T11:21:32;9.66;45.86
72106;SHT30;59975;47.646;18.318;2023-04-03T11:24:02;9.63;46.12
72106;SHT30;59975;47.646;18.318;2023-04-03T11:26:36;9.80;46.09
72106;SHT30;59975;47.646;18.318;2023-04-03T11:29:15;9.95;45.75
72106;SHT30;59975;47.646;18.318;2023-04-03T11:34:40;9.76;45.79
72106;SHT30;59975;47.646;18.318;2023-04-03T11:39:54;9.97;45.50
72106;SHT30;59975;47.646;18.318;2023-04-03T11:42:39;9.98;45.79
72106;SHT30;59975;47.646;18.318;2023-04-03T11:47:53;9.89;45.48
72106;SHT30;59975;47.646;18.318;2023-04-03T11:50:41;10.03;45.82
72106;SHT30;59975;47.646;18.318;2023-04-03T11:55:51;10.14;46.46
72106;SHT30;59975;47.646;18.318;2023-04-03T11:58:29;9.90;45.21
72106;SHT30;59975;47.646;18.318;2023-04-03T12:00:56;9.47;45.17
72106;SHT30;59975;47.646;18.318;2023-04-03T12:08:52;9.57;45.59
72106;SHT30;59975;47.646;18.318;2023-04-03T12:11:32;9.87;44.78
72106;SHT30;59975;47.646;18.318;2023-04-03T12:16:41;9.87;45.21
72106;SHT30;59975;47.646;18.318;2023-04-03T12:48:57;9.35;46.07
72106;SHT30;59975;47.646;18.318;2023-04-03T12:51:37;9.33;46.04
72106;SHT30;59975;47.646;18.318;2023-04-03T12:54:19;9.44;46.71
72106;SHT30;59975;47.646;18.318;2023-04-03T12:56:47;9.47;45.88
72106;SHT30;59975;47.646;18.318;2023-04-03T12:59:25;9.32;45.50
72106;SHT30;59975;47.646;18.318;2023-04-03T13:01:59;9.33;45.23
72106;SHT30;59975;47.646;18.318;2023-04-03T13:04:27;9.22;45.44
72106;SHT30;59975;47.646;18.318;2023-04-03T13:06:53;8.89;45.91
72106;SHT30;59975;47.646;18.318;2023-04-03T13:09:24;9.08;46.17
72106;SHT30;59975;47.646;18.318;2023-04-03T13:11:58;9.12;45.83
72106;SHT30;59975;47.646;18.318;2023-04-03T13:14:27;8.97;45.26
72106;SHT30;59975;47.646;18.318;2023-04-03T13:17:15;8.97;46.37
72106;SHT30;59975;47.646;18.318;2023-04-03T13:19:42;9.07;46.41
72106;SHT30;59975;47.646;18.318;2023-04-03T13:22:29;8.89;46.38
72106;SHT30;59975;47.646;18.318;2023-04-03T13:24:58;8.46;46.35
72106;SHT30;59975;47.646;18.318;2023-04-03T13:27:25;8.44;46.39
72106;SHT30;59975;47.646;18.318;2023-04-03T13:29:53;8.40;46.53
72106;SHT30;59975;47.646;18.318;2023-04-03T13:32:24;8.46;46.83
72106;SHT30;59975;47.646;18.318;2023-04-03T13:34:50;8.53;46.74
72106;SHT30;59975;47.646;18.318;2023-04-03T13:37:25;8.51;46.10
72106;SHT30;59975;47.646;18.318;2023-04-03T13:42:34;8.40;45.89
72106;SHT30;59975;47.646;18.318;2023-04-03T13:45:22;8.17;46.13
72106;SHT30;59975;47.646;18.318;2023-04-03T13:47:50;8.38;46.57
72106;SHT30;59975;47.646;18.318;2023-04-03T13:50:20;8.37;46.40
72106;SHT30;59975;47.646;18.318;2023-04-03T13:52:59;8.50;46.67
72106;SHT30;59975;47.646;18.318;2023-04-03T13:55:30;8.22;45.72
72106;SHT30;59975;47.646;18.318;2023-04-03T13:58:02;8.06;46.74
72106;SHT30;59975;47.646;18.318;2023-04-03T14:02:56;8.12;47.15
72106;SHT30;59975;47.646;18.318;2023-04-03T14:05:23;8.10;48.02
72106;SHT30;59975;47.646;18.318;2023-04-03T14:07:51;7.78;47.00
72106;SHT30;59975;47.646;18.318;2023-04-03T14:10:16;7.68;47.39
72106;SHT30;59975;47.646;18.318;2023-04-03T14:12:42;7.79;47.09
72106;SHT30;59975;47.646;18.318;2023-04-03T14:17:42;7.97;46.37
72106;SHT30;59975;47.646;18.318;2023-04-03T14:20:15;8.05;46.48
72106;SHT30;59975;47.646;18.318;2023-04-03T14:22:41;8.10;46.05
72106;SHT30;59975;47.646;18.318;2023-04-03T14:25:08;8.17;45.41
72106;SHT30;59975;47.646;18.318;2023-04-03T14:27:40;8.30;45.33
72106;SHT30;59975;47.646;18.318;2023-04-03T14:30:12;8.32;44.84
72106;SHT30;59975;47.646;18.318;2023-04-03T14:32:40;8.09;45.16
72106;SHT30;59975;47.646;18.318;2023-04-03T14:35:06;7.92;45.33
72106;SHT30;59975;47.646;18.318;2023-04-03T14:37:33;8.09;45.43
72106;SHT30;59975;47.646;18.318;2023-04-03T14:40:01;8.20;45.11
72106;SHT30;59975;47.646;18.318;2023-04-03T14:42:35;8.13;44.84
72106;SHT30;59975;47.646;18.318;2023-04-03T14:45:03;8.10;44.15
72106;SHT30;59975;47.646;18.318;2023-04-03T14:47:30;8.05;44.74
72106;SHT30;59975;47.646;18.318;2023-04-03T14:50:07;8.05;44.29
72106;SHT30;59975;47.646;18.318;2023-04-03T14:52:35;8.10;44.25
72106;SHT30;59975;47.646;18.318;2023-04-03T14:55:05;7.97;44.29
72106;SHT30;59975;47.646;18.318;2023-04-03T14:57:32;7.95;44.00
72106;SHT30;59975;47.646;18.318;2023-04-03T14:59:59;7.83;43.97
72106;SHT30;59975;47.646;18.318;2023-04-03T15:04:59;8.16;43.34
72106;SHT30;59975;47.646;18.318;2023-04-03T15:07:28;8.23;42.88
72106;SHT30;59975;47.646;18.318;2023-04-03T15:09:55;8.37;42.70
72106;SHT30;59975;47.646;18.318;2023-04-03T15:12:23;8.26;42.80
72106;SHT30;59975;47.646;18.318;2023-04-03T15:14:50;8.33;41.97
72106;SHT30;59975;47.646;18.318;2023-04-03T15:17:21;8.32;42.03
72106;SHT30;59975;47.646;18.318;2023-04-03T15:19:48;8.22;42.00
72106;SHT30;59975;47.646;18.318;2023-04-03T15:22:19;8.47;41.35
72106;SHT30;59975;47.646;18.318;2023-04-03T15:24:45;8.32;41.21
72106;SHT30;59975;47.646;18.318;2023-04-03T15:27:12;8.46;41.96
72106;SHT30;59975;47.646;18.318;2023-04-03T15:29:38;8.57;40.67
72106;SHT30;59975;47.646;18.318;2023-04-03T15:32:05;8.43;40.59
72106;SHT30;59975;47.646;18.318;2023-04-03T15:34:31;8.19;40.95
72106;SHT30;59975;47.646;18.318;2023-04-03T15:36:57;8.10;41.16
72106;SHT30;59975;47.646;18.318;2023-04-03T15:39:24;8.17;40.58
72106;SHT30;59975;47.646;18.318;2023-04-03T15:41:50;7.95;40.56
72106;SHT30;59975;47.646;18.318;2023-04-03T15:44:17;7.99;40.61
72106;SHT30;59975;47.646;18.318;2023-04-03T15:46:45;7.83;40.94
72106;SHT30;59975;47.646;18.318;2023-04-03T15:49:11;7.78;40.54
72106;SHT30;59975;47.646;18.318;2023-04-03T15:51:37;7.71;40.24
72106;SHT30;59975;47.646;18.318;2023-04-03T15:54:03;7.63;40.88
72106;SHT30;59975;47.646;18.318;2023-04-03T15:56:29;7.68;41.27
72106;SHT30;59975;47.646;18.318;2023-04-03T15:58:54;7.72;41.67
72106;SHT30;59975;47.646;18.318;2023-04-03T16:01:20;7.62;41.43
72106;SHT30;59975;47.646;18.318;2023-04-03T16:03:46;7.71;41.80
72106;SHT30;59975;47.646;18.318;2023-04-03T16:06:31;7.73;41.67
72106;SHT30;59975;47.646;18.318;2023-04-03T16:08:58;7.66;41.23
72106;SHT30;59975;47.646;18.318;2023-04-03T16:11:24;7.68;41.43
72106;SHT30;59975;47.646;18.318;2023-04-03T16:13:51;7.55;41.47
72106;SHT30;59975;47.646;18.318;2023-04-03T16:16:16;7.41;41.50
72106;SHT30;59975;47.646;18.318;2023-04-03T16:18:42;7.40;41.84
72106;SHT30;59975;47.646;18.318;2023-04-03T16:21:07;7.35;41.66
72106;SHT30;59975;47.646;18.318;2023-04-03T16:23:34;7.38;42.71
72106;SHT30;59975;47.646;18.318;2023-04-03T16:26:00;7.34;41.76
72106;SHT30;59975;47.646;18.318;2023-04-03T16:28:25;7.30;41.87
72106;SHT30;59975;47.646;18.318;2023-04-03T16:30:51;7.25;41.85
72106;SHT30;59975;47.646;18.318;2023-04-03T16:33:16;7.12;41.53
72106;SHT30;59975;47.646;18.318;2023-04-03T16:35:42;7.08;42.06
72106;SHT30;59975;47.646;18.318;2023-04-03T16:38:09;7.08;42.74
72106;SHT30;59975;47.646;18.318;2023-04-03T16:40:34;7.03;42.90
72106;SHT30;59975;47.646;18.318;2023-04-03T16:43:01;6.90;43.09
72106;SHT30;59975;47.646;18.318;2023-04-03T16:45:26;6.86;43.38
72106;SHT30;59975;47.646;18.318;2023-04-03T16:47:52;6.83;43.51
72106;SHT30;59975;47.646;18.318;2023-04-03T16:50:18;6.79;43.35
72106;SHT30;59975;47.646;18.318;2023-04-03T16:52:45;6.76;43.82
72106;SHT30;59975;47.646;18.318;2023-04-03T16:55:12;6.73;43.68
72106;SHT30;59975;47.646;18.318;2023-04-03T16:57:37;6.70;44.51
72106;SHT30;59975;47.646;18.318;2023-04-03T17:00:04;6.65;44.18
72106;SHT30;59975;47.646;18.318;2023-04-03T17:02:30;6.63;44.68
72106;SHT30;59975;47.646;18.318;2023-04-03T17:04:56;6.62;45.38
72106;SHT30;59975;47.646;18.318;2023-04-03T17:07:23;6.36;44.61
72106;SHT30;59975;47.646;18.318;2023-04-03T17:09:49;6.35;44.29
72106;SHT30;59975;47.646;18.318;2023-04-03T17:12:15;6.35;45.29
72106;SHT30;59975;47.646;18.318;2023-04-03T17:14:41;6.24;45.06
72106;SHT30;59975;47.646;18.318;2023-04-03T17:17:07;6.19;45.70
72106;SHT30;59975;47.646;18.318;2023-04-03T17:19:34;6.12;45.88
72106;SHT30;59975;47.646;18.318;2023-04-03T17:22:00;6.09;46.17
72106;SHT30;59975;47.646;18.318;2023-04-03T17:24:27;6.01;46.04
72106;SHT30;59975;47.646;18.318;2023-04-03T17:26:53;5.85;46.32
72106;SHT30;59975;47.646;18.318;2023-04-03T17:29:18;5.82;46.55
72106;SHT30;59975;47.646;18.318;2023-04-03T17:31:44;5.79;46.69
72106;SHT30;59975;47.646;18.318;2023-04-03T17:34:09;5.71;46.69
72106;SHT30;59975;47.646;18.318;2023-04-03T17:36:37;5.62;46.82
72106;SHT30;59975;47.646;18.318;2023-04-03T17:39:03;5.58;47.17
72106;SHT30;59975;47.646;18.318;2023-04-03T17:41:29;5.57;47.66
72106;SHT30;59975;47.646;18.318;2023-04-03T17:43:55;5.57;47.49
72106;SHT30;59975;47.646;18.318;2023-04-03T17:46:22;5.50;47.50
72106;SHT30;59975;47.646;18.318;2023-04-03T17:48:48;5.53;47.70
72106;SHT30;59975;47.646;18.318;2023-04-03T17:51:19;5.48;47.39
72106;SHT30;59975;47.646;18.318;2023-04-03T17:53:46;5.40;47.04
72106;SHT30;59975;47.646;18.318;2023-04-03T17:56:14;5.37;46.60
72106;SHT30;59975;47.646;18.318;2023-04-03T17:58:40;5.30;46.99
72106;SHT30;59975;47.646;18.318;2023-04-03T18:01:12;5.26;46.94
72106;SHT30;59975;47.646;18.318;2023-04-03T18:03:45;5.30;47.55
72106;SHT30;59975;47.646;18.318;2023-04-03T18:06:14;5.27;46.55
72106;SHT30;59975;47.646;18.318;2023-04-03T18:08:43;5.19;46.78
72106;SHT30;59975;47.646;18.318;2023-04-03T18:11:09;5.16;46.71
72106;SHT30;59975;47.646;18.318;2023-04-03T18:13:36;5.13;46.55
72106;SHT30;59975;47.646;18.318;2023-04-03T18:16:05;5.08;46.31
72106;SHT30;59975;47.646;18.318;2023-04-03T18:18:31;5.10;45.86
72106;SHT30;59975;47.646;18.318;2023-04-03T18:20:57;5.08;45.59
72106;SHT30;59975;47.646;18.318;2023-04-03T18:23:24;5.05;45.55
72106;SHT30;59975;47.646;18.318;2023-04-03T18:25:50;4.99;45.25
72106;SHT30;59975;47.646;18.318;2023-04-03T18:28:15;4.93;45.63
72106;SHT30;59975;47.646;18.318;2023-04-03T18:30:41;4.99;45.27
72106;SHT30;59975;47.646;18.318;2023-04-03T18:33:07;4.90;45.07
72106;SHT30;59975;47.646;18.318;2023-04-03T18:35:33;4.97;45.14
72106;SHT30;59975;47.646;18.318;2023-04-03T18:37:58;4.90;45.40
72106;SHT30;59975;47.646;18.318;2023-04-03T18:40:24;4.90;44.87
72106;SHT30;59975;47.646;18.318;2023-04-03T18:42:50;4.89;45.41
72106;SHT30;59975;47.646;18.318;2023-04-03T18:45:19;4.88;45.41
72106;SHT30;59975;47.646;18.318;2023-04-03T18:47:45;4.83;45.37
72106;SHT30;59975;47.646;18.318;2023-04-03T18:50:11;4.88;45.14
72106;SHT30;59975;47.646;18.318;2023-04-03T18:52:37;4.85;45.21
72106;SHT30;59975;47.646;18.318;2023-04-03T18:55:03;4.83;45.98
72106;SHT30;59975;47.646;18.318;2023-04-03T18:57:29;4.82;46.01